createdAt,value
2023-04-11T00:00:57.611Z,99727.34
2023-04-11T00:03:25.909Z,99712.44
2023-04-11T00:05:53.954Z,99711.38
2023-04-11T00:08:22.016Z,99718.56
2023-04-11T00:10:49.945Z,99710.38
2023-04-11T00:13:19.686Z,99710.66
2023-04-11T00:15:47.761Z,99714.34
2023-04-11T00:18:17.089Z,99718.88
2023-04-11T00:20:44.964Z,99709.47
2023-04-11T00:23:13.221Z,99709.59
2023-04-11T00:25:41.394Z,99695.63
2023-04-11T00:28:09.317Z,99695.00
2023-04-11T00:30:37.347Z,99698.28
2023-04-11T00:33:05.388Z,99700.59
2023-04-11T00:35:37.698Z,99693.97
2023-04-11T00:38:05.655Z,99689.44
2023-04-11T00:40:33.560Z,99685.72
2023-04-11T00:43:01.542Z,99689.66
2023-04-11T00:45:29.483Z,99691.66
2023-04-11T00:47:57.476Z,99688.69
2023-04-11T00:50:26.012Z,99684.78
2023-04-11T00:52:57.706Z,99684.22
2023-04-11T00:55:25.813Z,99680.59
2023-04-11T00:57:55.783Z,99687.84
2023-04-11T01:00:24.559Z,99681.88
2023-04-11T01:02:52.618Z,99680.94
2023-04-11T01:05:22.210Z,99676.38
2023-04-11T01:07:54.802Z,99679.69
2023-04-11T01:10:24.767Z,99682.00
2023-04-11T01:12:53.964Z,99669.59
2023-04-11T01:15:22.053Z,99674.81
2023-04-11T01:17:50.250Z,99678.28
2023-04-11T01:20:18.474Z,99678.13
2023-04-11T01:22:47.574Z,99671.63
2023-04-11T01:25:17.034Z,99667.91
2023-04-11T01:27:44.942Z,99672.66
2023-04-11T01:30:13.490Z,99671.63
2023-04-11T01:32:41.357Z,99672.56
2023-04-11T01:35:11.328Z,99675.88
2023-04-11T01:37:39.960Z,99677.38
2023-04-11T01:40:09.788Z,99679.03
2023-04-11T01:42:39.931Z,99680.84
2023-04-11T01:45:09.560Z,99677.34
2023-04-11T01:47:37.607Z,99673.03
2023-04-11T01:50:06.940Z,99674.78
2023-04-11T01:52:34.836Z,99673.03
2023-04-11T01:55:04.177Z,99671.13
2023-04-11T01:57:32.147Z,99665.25
2023-04-11T02:00:01.517Z,99659.25
2023-04-11T02:02:29.551Z,99658.88
2023-04-11T02:04:58.171Z,99656.28
2023-04-11T02:07:26.173Z,99658.78
2023-04-11T02:09:54.058Z,99651.19
2023-04-11T02:12:22.015Z,99651.06
2023-04-11T02:14:49.955Z,99646.81
2023-04-11T02:17:20.848Z,99643.16
2023-04-11T02:19:49.379Z,99630.59
2023-04-11T02:22:17.304Z,99629.09
2023-04-11T02:24:46.429Z,99630.72
2023-04-11T02:27:14.518Z,99628.25
2023-04-11T02:29:42.342Z,99632.34
2023-04-11T02:32:10.554Z,99620.59
2023-04-11T02:34:41.352Z,99632.31
2023-04-11T02:37:09.391Z,99635.34
2023-04-11T02:39:37.278Z,99637.84
2023-04-11T02:42:05.447Z,99629.69
2023-04-11T02:44:33.777Z,99624.03
2023-04-11T02:47:02.329Z,99620.91
2023-04-11T02:49:30.789Z,99617.59
2023-04-11T02:52:01.443Z,99609.66
2023-04-11T02:54:29.403Z,99606.84
2023-04-11T02:57:02.159Z,99604.63
2023-04-11T02:59:30.609Z,99604.97
2023-04-11T03:02:00.543Z,99606.75
2023-04-11T03:04:29.273Z,99619.50
2023-04-11T03:07:14.491Z,99604.44
2023-04-11T03:09:43.246Z,99600.13
2023-04-11T03:12:11.309Z,99593.97
2023-04-11T03:14:49.188Z,99591.19
2023-04-11T03:17:17.272Z,99591.78
2023-04-11T03:19:45.241Z,99590.78
2023-04-11T03:22:14.647Z,99597.09
2023-04-11T03:24:42.795Z,99604.47
2023-04-11T03:27:10.765Z,99602.09
2023-04-11T03:29:42.036Z,99596.88
2023-04-11T03:32:16.623Z,99591.19
2023-04-11T03:34:44.572Z,99590.69
2023-04-11T03:37:15.020Z,99594.66
2023-04-11T03:39:42.901Z,99585.94
2023-04-11T03:42:12.603Z,99589.09
2023-04-11T03:44:40.769Z,99584.25
2023-04-11T03:47:08.826Z,99587.03
2023-04-11T03:49:41.713Z,99594.31
2023-04-11T03:52:11.485Z,99593.53
2023-04-11T03:54:42.387Z,99586.78
2023-04-11T03:57:11.826Z,99584.81
2023-04-11T03:59:40.351Z,99578.50
2023-04-11T04:02:10.988Z,99582.63
2023-04-11T04:04:47.169Z,99580.06
2023-04-11T04:07:28.905Z,99572.78
2023-04-11T04:10:09.577Z,99576.19
2023-04-11T04:12:37.534Z,99573.53
2023-04-11T04:15:14.804Z,99568.31
2023-04-11T04:17:45.237Z,99563.22
2023-04-11T04:20:19.200Z,99555.91
2023-04-11T04:22:53.907Z,99550.88
2023-04-11T04:25:31.746Z,99538.25
2023-04-11T04:28:01.030Z,99541.56
2023-04-11T04:30:37.990Z,99545.84
2023-04-11T04:33:12.342Z,99549.47
2023-04-11T04:35:44.317Z,99553.19
2023-04-11T04:38:17.834Z,99563.50
2023-04-11T04:40:56.372Z,99556.72
2023-04-11T04:43:27.219Z,99563.16
2023-04-11T04:46:03.368Z,99564.84
2023-04-11T04:48:40.122Z,99559.88
2023-04-11T04:51:09.116Z,99553.31
2023-04-11T04:53:38.767Z,99560.00
2023-04-11T04:56:10.967Z,99555.84
2023-04-11T04:58:42.088Z,99551.97
2023-04-11T05:01:13.528Z,99561.56
2023-04-11T05:03:41.760Z,99557.91
2023-04-11T05:06:15.008Z,99565.84
2023-04-11T05:08:46.477Z,99554.84
2023-04-11T05:11:16.844Z,99569.91
2023-04-11T05:13:44.708Z,99564.88
2023-04-11T05:16:12.713Z,99559.22
2023-04-11T05:18:40.824Z,99553.66
2023-04-11T05:21:08.967Z,99557.06
2023-04-11T05:23:41.868Z,99549.88
2023-04-11T05:26:10.483Z,99551.88
2023-04-11T05:28:41.524Z,99554.53
2023-04-11T05:31:13.825Z,99557.13
2023-04-11T05:33:42.166Z,99557.13
2023-04-11T05:36:13.929Z,99551.41
2023-04-11T05:38:42.221Z,99550.03
2023-04-11T05:41:10.459Z,99551.00
2023-04-11T05:43:38.402Z,99557.75
2023-04-11T05:46:09.053Z,99548.88
2023-04-11T05:48:38.181Z,99547.28
2023-04-11T05:51:06.632Z,99542.44
2023-04-11T05:53:35.348Z,99541.03
2023-04-11T05:56:03.881Z,99550.44
2023-04-11T05:58:31.778Z,99558.09
2023-04-11T06:01:00.749Z,99553.25
2023-04-11T06:03:30.107Z,99544.97
2023-04-11T06:05:58.071Z,99538.47
2023-04-11T06:08:25.953Z,99536.38
2023-04-11T06:10:53.881Z,99534.28
2023-04-11T06:13:21.732Z,99528.06
2023-04-11T06:15:49.899Z,99517.72
2023-04-11T06:18:17.761Z,99507.25
2023-04-11T06:20:48.885Z,99501.53
2023-04-11T06:23:16.814Z,99505.91
2023-04-11T06:25:44.690Z,99502.78
2023-04-11T06:28:12.583Z,99498.88
2023-04-11T06:30:40.422Z,99492.44
2023-04-11T06:33:08.372Z,99497.47
2023-04-11T06:35:36.912Z,99493.38
2023-04-11T06:38:06.181Z,99483.44
2023-04-11T06:40:35.395Z,99491.84
2023-04-11T06:43:03.264Z,99491.97
2023-04-11T06:45:32.018Z,99486.44
2023-04-11T06:47:59.988Z,99498.63
2023-04-11T06:50:28.045Z,99499.56
2023-04-11T06:52:58.265Z,99491.34
2023-04-11T06:55:27.522Z,99493.19
2023-04-11T06:57:55.586Z,99491.03
2023-04-11T07:00:24.041Z,99482.22
2023-04-11T07:02:52.579Z,99472.63
2023-04-11T07:05:20.809Z,99477.19
2023-04-11T07:07:48.832Z,99478.63
2023-04-11T07:10:16.744Z,99471.09
2023-04-11T07:12:45.978Z,99479.41
2023-04-11T07:15:13.856Z,99471.56
2023-04-11T07:17:41.731Z,99454.56
2023-04-11T07:20:11.126Z,99466.16
2023-04-11T07:22:42.415Z,99465.91
2023-04-11T07:25:10.617Z,99463.88
2023-04-11T07:27:38.900Z,99458.38
2023-04-11T07:30:09.757Z,99454.44
2023-04-11T07:32:37.632Z,99459.63
2023-04-11T07:35:06.035Z,99450.75
2023-04-11T07:37:33.889Z,99448.38
2023-04-11T07:40:04.514Z,99440.09
2023-04-11T07:42:32.504Z,99445.25
2023-04-11T07:45:00.353Z,99438.59
2023-04-11T07:47:29.729Z,99437.84
2023-04-11T07:49:58.568Z,99433.72
2023-04-11T07:52:27.027Z,99433.00
2023-04-11T07:54:55.834Z,99413.06
2023-04-11T07:57:23.743Z,99402.34
2023-04-11T07:59:51.895Z,99409.22
2023-04-11T08:02:19.885Z,99410.09
2023-04-11T08:04:49.434Z,99401.03
2023-04-11T08:07:17.498Z,99406.00
2023-04-11T08:09:45.392Z,99404.19
2023-04-11T08:12:13.268Z,99400.75
2023-04-11T08:14:41.133Z,99401.69
2023-04-11T08:17:21.119Z,99390.88
2023-04-11T08:19:57.470Z,99398.50
2023-04-11T08:22:26.004Z,99385.97
2023-04-11T08:24:53.910Z,99387.69
2023-04-11T08:27:21.933Z,99375.94
2023-04-11T08:29:49.755Z,99386.63
2023-04-11T08:32:17.671Z,99373.94
2023-04-11T08:34:45.564Z,99376.38
2023-04-11T08:37:14.901Z,99381.38
2023-04-11T08:39:42.753Z,99374.91
2023-04-11T08:42:23.495Z,99374.41
2023-04-11T08:44:54.561Z,99372.16
2023-04-11T08:47:22.634Z,99366.63
2023-04-11T08:49:51.124Z,99366.78
2023-04-11T08:52:21.392Z,99345.16
2023-04-11T08:54:50.127Z,99351.94
2023-04-11T08:57:28.343Z,99345.41
2023-04-11T08:59:57.650Z,99342.16
2023-04-11T09:02:25.667Z,99338.94
2023-04-11T09:04:54.611Z,99341.53
2023-04-11T09:07:23.913Z,99333.19
2023-04-11T09:09:51.921Z,99344.13
2023-04-11T09:12:29.617Z,99339.13
2023-04-11T09:14:57.874Z,99337.41
2023-04-11T09:17:25.924Z,99333.94
2023-04-11T09:19:53.976Z,99314.50
2023-04-11T09:22:36.501Z,99318.66
2023-04-11T09:25:04.823Z,99312.72
2023-04-11T09:27:32.707Z,99307.72
2023-04-11T09:30:03.681Z,99316.03
2023-04-11T09:32:34.008Z,99309.25
2023-04-11T09:35:09.617Z,99301.56
2023-04-11T09:37:46.756Z,99299.84
2023-04-11T09:40:16.647Z,99297.25
2023-04-11T09:42:46.021Z,99294.78
2023-04-11T09:45:19.456Z,99295.69
2023-04-11T09:47:49.013Z,99299.19
2023-04-11T09:50:17.504Z,99282.44
2023-04-11T09:52:47.495Z,99275.78
2023-04-11T09:55:16.848Z,99282.53
2023-04-11T09:57:47.477Z,99279.22
2023-04-11T10:00:18.067Z,99276.78
2023-04-11T10:02:48.978Z,99275.16
2023-04-11T10:05:18.943Z,99276.88
2023-04-11T10:07:50.463Z,99264.38
2023-04-11T10:10:21.054Z,99256.13
2023-04-11T10:12:50.219Z,99257.91
2023-04-11T10:15:19.019Z,99258.00
2023-04-11T10:18:14.078Z,99248.81
2023-04-11T10:20:44.812Z,99242.06
2023-04-11T10:23:16.038Z,99238.69
2023-04-11T10:25:52.503Z,99237.03
2023-04-11T10:28:38.765Z,99236.16
2023-04-11T10:31:09.952Z,99231.94
2023-04-11T10:33:39.676Z,99222.72
2023-04-11T10:36:10.251Z,99215.22
2023-04-11T10:38:51.190Z,99209.41
2023-04-11T10:41:31.795Z,99201.88
2023-04-11T10:44:15.708Z,99205.25
2023-04-11T10:46:51.891Z,99190.97
2023-04-11T10:49:37.627Z,99196.00
2023-04-11T10:52:20.578Z,99185.09
2023-04-11T10:54:50.849Z,99185.94
2023-04-11T10:57:19.339Z,99186.78
2023-04-11T11:00:13.121Z,99186.75
2023-04-11T11:02:42.500Z,99175.00
2023-04-11T11:05:21.922Z,99175.84
2023-04-11T11:07:51.722Z,99179.22
2023-04-11T11:10:41.537Z,99179.22
2023-04-11T11:13:09.838Z,99173.34
2023-04-11T11:15:38.589Z,99189.31
2023-04-11T11:18:09.470Z,99191.78
2023-04-11T11:20:37.938Z,99186.75
2023-04-11T11:23:07.742Z,99204.44
2023-04-11T11:25:36.267Z,99206.09
2023-04-11T11:28:06.726Z,99200.22
2023-04-11T11:30:35.392Z,99199.38
2023-04-11T11:33:16.045Z,99194.31
2023-04-11T11:35:46.429Z,99198.53
2023-04-11T11:38:14.571Z,99198.53
2023-04-11T11:40:42.512Z,99196.84
2023-04-11T11:43:12.162Z,99196.00
2023-04-11T11:45:40.239Z,99201.88
2023-04-11T11:48:08.364Z,99201.88
2023-04-11T11:50:36.302Z,99212.78
2023-04-11T11:53:14.379Z,99208.56
2023-04-11T11:55:43.381Z,99210.25
2023-04-11T11:58:12.616Z,99211.91
2023-04-11T12:00:41.581Z,99202.69
2023-04-11T12:03:10.952Z,99200.16
2023-04-11T12:05:39.472Z,99195.13
2023-04-11T12:08:08.963Z,99185.91
2023-04-11T12:10:39.386Z,99162.34
2023-04-11T12:13:19.925Z,99186.72
2023-04-11T12:15:51.801Z,99190.91
2023-04-11T12:18:21.723Z,99195.91
2023-04-11T12:20:49.793Z,99190.03
2023-04-11T12:23:17.939Z,99189.16
2023-04-11T12:25:46.685Z,99195.00
2023-04-11T12:28:14.970Z,99203.31
2023-04-11T12:30:44.278Z,99188.13
2023-04-11T12:33:12.152Z,99204.91
2023-04-11T12:35:40.117Z,99197.38
2023-04-11T12:38:08.196Z,99192.31
2023-04-11T12:40:36.230Z,99209.09
2023-04-11T12:43:04.112Z,99196.50
2023-04-11T12:45:33.180Z,99198.16
2023-04-11T12:48:02.652Z,99201.50
2023-04-11T12:50:30.623Z,99192.28
2023-04-11T12:52:58.707Z,99184.69
2023-04-11T12:55:26.824Z,99198.13
2023-04-11T12:57:54.733Z,99201.44
2023-04-11T13:00:23.133Z,99199.72
2023-04-11T13:02:51.218Z,99204.66
2023-04-11T13:05:20.574Z,99216.19
2023-04-11T13:07:48.743Z,99214.31
2023-04-11T13:10:17.067Z,99217.44
2023-04-11T13:12:46.374Z,99223.81
2023-04-11T13:15:16.215Z,99217.75
2023-04-11T13:17:44.705Z,99209.31
2023-04-11T13:20:13.609Z,99204.28
2023-04-11T13:22:44.263Z,99204.28
2023-04-11T13:25:13.027Z,99202.63
2023-04-11T13:27:42.255Z,99215.16
2023-04-11T13:30:11.199Z,99203.44
2023-04-11T13:32:39.341Z,99200.94
2023-04-11T13:35:08.236Z,99195.91
2023-04-11T13:37:36.249Z,99191.72
2023-04-11T13:40:08.434Z,99191.72
2023-04-11T13:42:36.614Z,99187.53
2023-04-11T13:45:05.514Z,99196.75
2023-04-11T13:47:34.739Z,99192.56
2023-04-11T13:50:04.126Z,99183.34
2023-04-11T13:52:32.000Z,99180.84
2023-04-11T13:54:59.927Z,99185.06
2023-04-11T13:57:29.278Z,99174.22
2023-04-11T13:59:57.309Z,99175.97
2023-04-11T14:02:25.258Z,99175.13
2023-04-11T14:04:53.550Z,99185.19
2023-04-11T14:07:21.428Z,99183.47
2023-04-11T14:09:49.273Z,99179.28
2023-04-11T14:12:17.131Z,99174.28
2023-04-11T14:14:46.293Z,99170.13
2023-04-11T14:17:14.157Z,99142.44
2023-04-11T14:19:42.327Z,99161.84
2023-04-11T14:22:10.724Z,99166.84
2023-04-11T14:24:38.669Z,99166.03
2023-04-11T14:27:06.600Z,99163.47
2023-04-11T14:29:35.135Z,99163.44
2023-04-11T14:32:05.286Z,99173.44
2023-04-11T14:34:33.394Z,99170.06
2023-04-11T14:37:01.286Z,99175.06
2023-04-11T14:39:29.290Z,99171.78
2023-04-11T14:41:57.160Z,99175.97
2023-04-11T14:44:25.064Z,99175.94
2023-04-11T14:46:52.943Z,99174.28
2023-04-11T14:49:22.265Z,99174.34
2023-04-11T14:51:50.206Z,99180.25
2023-04-11T14:54:18.111Z,99176.88
2023-04-11T14:56:47.518Z,99181.06
2023-04-11T14:59:15.488Z,99186.00
2023-04-11T15:01:43.495Z,99187.66
2023-04-11T15:04:11.608Z,99194.31
2023-04-11T15:06:40.938Z,99197.59
2023-04-11T15:09:09.448Z,99194.13
2023-04-11T15:11:37.533Z,99183.22
2023-04-11T15:14:05.582Z,99179.03
2023-04-11T15:16:33.397Z,99179.00
2023-04-11T15:19:01.308Z,99177.41
2023-04-11T15:21:32.566Z,99175.78
2023-04-11T15:24:06.509Z,99172.41
2023-04-11T15:26:34.536Z,99178.28
2023-04-11T15:29:02.397Z,99173.19
2023-04-11T15:31:30.707Z,99163.13
2023-04-11T15:34:01.356Z,99167.19
2023-04-11T15:36:32.132Z,99175.44
2023-04-11T15:39:01.691Z,99167.03
2023-04-11T15:41:30.552Z,99178.66
2023-04-11T15:44:00.451Z,99181.09
2023-04-11T15:46:29.128Z,99180.25
2023-04-11T15:48:56.949Z,99178.59
2023-04-11T15:51:24.989Z,99161.09
2023-04-11T15:53:52.824Z,99151.06
2023-04-11T15:56:22.327Z,99140.25
2023-04-11T15:58:50.393Z,99141.94
2023-04-11T16:01:23.029Z,99154.44
2023-04-11T16:03:51.702Z,99169.50
2023-04-11T16:06:20.010Z,99167.84
2023-04-11T16:08:47.889Z,99162.88
2023-04-11T16:11:15.766Z,99160.34
2023-04-11T16:13:45.118Z,99157.13
2023-04-11T16:16:12.991Z,99168.19
2023-04-11T16:18:40.967Z,99174.94
2023-04-11T16:21:13.709Z,99178.31
2023-04-11T16:23:42.169Z,99178.25
2023-04-11T16:26:10.711Z,99178.16
2023-04-11T16:28:38.689Z,99176.41
2023-04-11T16:31:09.260Z,99183.03
2023-04-11T16:33:37.251Z,99170.44
2023-04-11T16:36:05.682Z,99174.56
2023-04-11T16:38:33.598Z,99152.84
2023-04-11T16:41:01.542Z,99136.88
2023-04-11T16:43:29.345Z,99158.31
2023-04-11T16:45:57.555Z,99157.00
2023-04-11T16:48:27.109Z,99150.59
2023-04-11T16:50:54.960Z,99154.16
2023-04-11T16:53:22.838Z,99159.31
2023-04-11T16:55:52.554Z,99159.34
2023-04-11T16:58:20.482Z,99153.41
2023-04-11T17:00:49.164Z,99161.63
2023-04-11T17:03:18.156Z,99158.84
2023-04-11T17:05:47.538Z,99158.50
2023-04-11T17:08:15.690Z,99161.50
2023-04-11T17:10:44.098Z,99162.97
2023-04-11T17:13:12.758Z,99162.84
2023-04-11T17:15:41.035Z,99164.28
2023-04-11T17:18:09.056Z,99156.63
2023-04-11T17:20:37.141Z,99158.13
2023-04-11T17:23:06.500Z,99156.25
2023-04-11T17:25:34.397Z,99158.63
2023-04-11T17:28:02.423Z,99149.34
2023-04-11T17:30:31.764Z,99157.59
2023-04-11T17:33:00.208Z,99155.72
2023-04-11T17:35:28.385Z,99159.84
2023-04-11T17:37:56.307Z,99156.47
2023-04-11T17:40:25.537Z,99157.94
2023-04-11T17:42:53.525Z,99160.97
2023-04-11T17:45:22.609Z,99161.75
2023-04-11T17:47:51.027Z,99148.44
2023-04-11T17:50:20.042Z,99155.97
2023-04-11T17:52:48.514Z,99145.84
2023-04-11T17:55:17.997Z,99165.13
2023-04-11T17:57:49.028Z,99159.19
2023-04-11T18:00:23.151Z,99155.78
2023-04-11T18:02:52.888Z,99160.81
2023-04-11T18:05:25.165Z,99153.31
2023-04-11T18:07:56.385Z,99153.28
2023-04-11T18:10:25.884Z,99159.03
2023-04-11T18:12:57.482Z,99174.81
2023-04-11T18:15:26.833Z,99177.22
2023-04-11T18:17:55.109Z,99198.13
2023-04-11T18:20:23.014Z,99187.19
2023-04-11T18:22:54.858Z,99193.84
2023-04-11T18:25:23.403Z,99202.13
2023-04-11T18:27:51.499Z,99208.75
2023-04-11T18:30:21.032Z,99212.97
2023-04-11T18:32:50.957Z,99207.88
2023-04-11T18:35:19.408Z,99205.03
2023-04-11T18:37:47.438Z,99205.69
2023-04-11T18:40:15.937Z,99212.19
2023-04-11T18:42:46.458Z,99215.34
2023-04-11T18:45:15.562Z,99215.16
2023-04-11T18:47:46.223Z,99226.84
2023-04-11T18:50:15.099Z,99228.78
2023-04-11T18:52:44.748Z,99234.00
2023-04-11T18:55:13.413Z,99227.91
2023-04-11T18:57:43.297Z,99229.19
2023-04-11T19:00:18.577Z,99229.75
2023-04-11T19:02:50.608Z,99224.78
2023-04-11T19:05:19.281Z,99237.44
2023-04-11T19:07:47.514Z,99232.19
2023-04-11T19:10:15.443Z,99234.41
2023-04-11T19:12:43.550Z,99233.47
2023-04-11T19:15:12.881Z,99233.34
2023-04-11T19:17:41.217Z,99225.81
2023-04-11T19:20:13.576Z,99223.28
2023-04-11T19:22:41.993Z,99209.88
2023-04-11T19:25:12.122Z,99194.94
2023-04-11T19:27:42.052Z,99180.03
2023-04-11T19:30:13.509Z,99175.06
2023-04-11T19:32:43.708Z,99192.38
2023-04-11T19:35:13.428Z,99194.88
2023-04-11T19:37:41.845Z,99187.47
2023-04-11T19:40:13.475Z,99178.28
2023-04-11T19:42:41.862Z,99173.28
2023-04-11T19:45:10.666Z,99171.78
2023-04-11T19:47:39.728Z,99193.69
2023-04-11T19:50:08.910Z,99186.06
2023-04-11T19:52:38.267Z,99191.72
2023-04-11T19:55:07.608Z,99187.63
2023-04-11T19:57:36.362Z,99203.59
2023-04-11T20:00:11.489Z,99201.47
2023-04-11T20:02:39.927Z,99203.81
2023-04-11T20:05:09.143Z,99198.59
2023-04-11T20:07:39.029Z,99187.69
2023-04-11T20:10:08.242Z,99188.63
2023-04-11T20:12:36.274Z,99178.53
2023-04-11T20:15:04.391Z,99187.69
2023-04-11T20:17:32.268Z,99187.63
2023-04-11T20:20:05.551Z,99180.88
2023-04-11T20:22:33.479Z,99180.88
2023-04-11T20:25:03.700Z,99182.38
2023-04-11T20:27:31.600Z,99189.84
2023-04-11T20:30:00.610Z,99190.94
2023-04-11T20:32:29.154Z,99209.41
2023-04-11T20:34:57.804Z,99210.25
2023-04-11T20:37:25.787Z,99208.66
2023-04-11T20:39:53.682Z,99211.78
2023-04-11T20:42:22.998Z,99207.63
2023-04-11T20:44:51.041Z,99210.22
2023-04-11T20:47:19.051Z,99201.00
2023-04-11T20:49:49.689Z,99213.22
2023-04-11T20:52:18.280Z,99219.66
2023-04-11T20:54:46.535Z,99224.63
2023-04-11T20:57:14.456Z,99233.53
2023-04-11T20:59:43.676Z,99231.59
2023-04-11T21:02:11.625Z,99223.69
2023-04-11T21:04:39.529Z,99230.31
2023-04-11T21:07:07.718Z,99226.75
2023-04-11T21:09:36.388Z,99230.81
2023-04-11T21:12:04.909Z,99220.66
2023-04-11T21:14:33.192Z,99217.09
2023-04-11T21:17:02.486Z,99223.66
2023-04-11T21:19:30.395Z,99236.25
2023-04-11T21:21:58.362Z,99226.28
2023-04-11T21:24:26.935Z,99263.63
2023-04-11T21:26:54.876Z,99213.84
2023-04-11T21:29:22.666Z,99215.53
2023-04-11T21:31:50.627Z,99224.56
2023-04-11T21:34:20.075Z,99227.06
2023-04-11T21:36:47.995Z,99226.28
2023-04-11T21:39:15.814Z,99238.94
2023-04-11T21:41:43.724Z,99237.91
2023-04-11T21:44:11.550Z,99235.94
2023-04-11T21:46:39.528Z,99236.69
2023-04-11T21:49:07.473Z,99227.38
2023-04-11T21:51:36.675Z,99233.16
2023-04-11T21:54:05.064Z,99229.00
2023-04-11T21:56:33.014Z,99218.13
2023-04-11T21:59:00.940Z,99219.72
2023-04-11T22:01:29.193Z,99227.16
2023-04-11T22:03:58.898Z,99223.72
2023-04-11T22:06:30.354Z,99227.91
2023-04-11T22:09:01.457Z,99232.88
2023-04-11T22:11:29.613Z,99240.22
2023-04-11T22:13:58.307Z,99237.63
2023-04-11T22:16:30.681Z,99245.03
2023-04-11T22:19:00.447Z,99244.19
2023-04-11T22:21:32.446Z,99247.38
2023-04-11T22:24:02.160Z,99238.09
2023-04-11T22:26:34.139Z,99239.59
2023-04-11T22:29:05.122Z,99233.97
2023-04-11T22:31:34.706Z,99238.06
2023-04-11T22:34:02.752Z,99248.81
2023-04-11T22:36:35.694Z,99238.00
2023-04-11T22:39:05.652Z,99242.06
2023-04-11T22:41:34.041Z,99238.75
2023-04-11T22:44:02.523Z,99237.97
2023-04-11T22:46:32.206Z,99238.97
2023-04-11T22:49:00.178Z,99243.44
2023-04-11T22:51:30.085Z,99243.00
2023-04-11T22:53:58.721Z,99237.44
2023-04-11T22:56:28.179Z,99236.09
2023-04-11T22:58:56.035Z,99242.00
2023-04-11T23:01:23.958Z,99234.72
2023-04-11T23:03:51.945Z,99228.03
2023-04-11T23:06:19.772Z,99220.59
2023-04-11T23:08:47.720Z,99226.47
2023-04-11T23:11:15.594Z,99228.75
2023-04-11T23:13:44.894Z,99236.22
2023-04-11T23:16:13.259Z,99227.66
2023-04-11T23:18:41.174Z,99220.19
2023-04-11T23:21:13.164Z,99221.19
2023-04-11T23:23:41.622Z,99216.75
2023-04-11T23:26:10.841Z,99218.22
2023-04-11T23:28:38.730Z,99213.34
2023-04-11T23:31:08.217Z,99213.47
2023-04-11T23:33:36.212Z,99213.53
2023-04-11T23:36:04.357Z,99215.31
2023-04-11T23:38:32.677Z,99218.69
2023-04-11T23:41:00.622Z,99226.97
2023-04-11T23:43:28.486Z,99216.81
2023-04-11T23:45:56.501Z,99215.94
2023-04-11T23:48:26.072Z,99221.72
2023-04-11T23:50:53.997Z,99221.59
2023-04-11T23:53:21.977Z,99216.44
2023-04-11T23:55:49.907Z,99219.56
2023-04-11T23:58:18.017Z,99209.53
